createdAt,value
2018-09-18T00:01:31.723Z,18.60
2018-09-18T00:04:00.046Z,18.70
2018-09-18T00:06:28.395Z,18.80
2018-09-18T00:08:56.774Z,18.80
2018-09-18T00:11:25.095Z,18.80
2018-09-18T00:13:53.439Z,18.90
2018-09-18T00:16:21.774Z,18.90
2018-09-18T00:18:50.131Z,18.70
2018-09-18T00:21:18.527Z,18.60
2018-09-18T00:23:46.886Z,18.60
2018-09-18T00:26:15.255Z,18.70
2018-09-18T00:28:43.663Z,18.70
2018-09-18T00:31:11.995Z,18.70
2018-09-18T00:33:40.384Z,18.80
2018-09-18T00:36:08.765Z,19.00
2018-09-18T00:38:37.190Z,19.10
2018-09-18T00:41:05.606Z,18.90
2018-09-18T00:43:33.998Z,18.90
2018-09-18T00:46:02.433Z,18.80
2018-09-18T00:48:30.787Z,18.70
2018-09-18T00:50:59.193Z,18.70
2018-09-18T00:53:27.610Z,18.50
2018-09-18T00:55:55.957Z,18.40
2018-09-18T00:58:24.348Z,18.30
2018-09-18T01:00:52.726Z,18.30
2018-09-18T01:03:21.102Z,18.30
2018-09-18T01:05:49.615Z,18.20
2018-09-18T01:08:17.961Z,18.20
2018-09-18T01:10:46.370Z,18.10
2018-09-18T01:13:14.890Z,18.20
2018-09-18T01:15:43.362Z,18.10
2018-09-18T01:18:11.744Z,18.20
2018-09-18T01:20:40.187Z,18.20
2018-09-18T01:23:08.582Z,18.30
2018-09-18T01:25:37.112Z,18.20
2018-09-18T01:28:05.555Z,18.10
2018-09-18T01:30:34.034Z,18.00
2018-09-18T01:33:02.455Z,18.00
2018-09-18T01:35:30.858Z,17.90
2018-09-18T01:44:08.099Z,18.10
2018-09-18T01:46:36.579Z,18.00
2018-09-18T01:49:05.275Z,17.90
2018-09-18T01:51:33.695Z,17.90
2018-09-18T01:54:02.126Z,17.90
2018-09-18T01:56:30.917Z,17.90
2018-09-18T01:58:59.322Z,17.90
2018-09-18T02:01:27.758Z,17.90
2018-09-18T02:03:56.198Z,17.80
2018-09-18T02:06:24.590Z,17.80
2018-09-18T02:08:53.022Z,17.70
2018-09-18T02:11:21.426Z,17.80
2018-09-18T02:13:49.822Z,17.80
2018-09-18T02:16:18.259Z,17.70
2018-09-18T02:18:46.703Z,17.70
2018-09-18T02:21:15.089Z,17.60
2018-09-18T02:23:43.507Z,17.70
2018-09-18T02:26:11.891Z,17.70
2018-09-18T02:28:46.248Z,17.60
2018-09-18T02:31:14.655Z,17.60
2018-09-18T02:33:43.045Z,17.60
2018-09-18T02:36:11.456Z,17.60
2018-09-18T02:38:39.857Z,17.70
2018-09-18T02:41:08.301Z,17.70
2018-09-18T02:43:36.703Z,17.70
2018-09-18T02:46:05.082Z,17.70
2018-09-18T02:48:33.415Z,17.70
2018-09-18T02:51:01.795Z,17.70
2018-09-18T02:53:30.167Z,17.70
2018-09-18T02:55:59.102Z,17.60
2018-09-18T02:58:27.463Z,17.70
2018-09-18T03:00:55.838Z,17.60
2018-09-18T03:03:24.203Z,17.70
2018-09-18T03:05:52.585Z,17.60
2018-09-18T03:08:20.975Z,17.60
2018-09-18T03:10:49.369Z,17.70
2018-09-18T03:13:17.710Z,17.70
2018-09-18T03:15:46.311Z,17.80
2018-09-18T03:18:14.678Z,17.70
2018-09-18T03:20:43.066Z,17.50
2018-09-18T03:23:11.431Z,17.50
2018-09-18T03:25:39.858Z,17.40
2018-09-18T03:28:08.311Z,17.30
2018-09-18T03:30:36.716Z,17.30
2018-09-18T03:33:05.146Z,17.20
2018-09-18T03:35:33.513Z,17.20
2018-09-18T03:38:01.854Z,17.10
2018-09-18T03:40:30.282Z,17.10
2018-09-18T03:42:58.690Z,17.10
2018-09-18T03:45:27.079Z,17.20
2018-09-18T03:47:55.475Z,17.20
2018-09-18T03:50:23.838Z,17.20
2018-09-18T03:52:52.250Z,17.20
2018-09-18T03:55:20.634Z,17.20
2018-09-18T03:57:49.009Z,17.10
2018-09-18T04:00:17.439Z,17.10
2018-09-18T04:02:45.892Z,17.00
2018-09-18T04:05:14.242Z,17.00
2018-09-18T04:07:42.704Z,17.00
2018-09-18T04:10:11.111Z,17.00
2018-09-18T04:12:39.587Z,17.00
2018-09-18T04:15:08.010Z,17.00
2018-09-18T04:17:36.437Z,16.90
2018-09-18T04:20:05.095Z,16.90
2018-09-18T04:22:33.518Z,16.90
2018-09-18T04:25:01.935Z,16.90
2018-09-18T04:27:30.299Z,16.90
2018-09-18T04:29:58.729Z,17.00
2018-09-18T04:32:27.155Z,17.00
2018-09-18T04:34:55.571Z,17.10
2018-09-18T04:37:23.962Z,17.30
2018-09-18T04:39:52.366Z,17.20
2018-09-18T04:42:20.803Z,17.00
2018-09-18T04:44:49.158Z,16.90
2018-09-18T04:47:17.551Z,17.00
2018-09-18T04:49:45.894Z,17.10
2018-09-18T04:52:14.239Z,17.10
2018-09-18T04:54:42.805Z,17.00
2018-09-18T04:57:11.203Z,17.00
2018-09-18T04:59:39.556Z,17.00
2018-09-18T05:02:08.110Z,17.00
2018-09-18T05:04:36.490Z,16.80
2018-09-18T05:07:05.237Z,16.70
2018-09-18T05:09:33.856Z,16.60
2018-09-18T05:12:02.256Z,16.60
2018-09-18T05:14:30.734Z,16.50
2018-09-18T05:16:59.119Z,16.50
2018-09-18T05:19:27.493Z,16.50
2018-09-18T05:21:55.862Z,16.40
2018-09-18T05:24:24.297Z,16.40
2018-09-18T05:26:52.802Z,16.40
2018-09-18T05:29:21.146Z,16.40
2018-09-18T05:31:49.528Z,16.40
2018-09-18T05:34:18.315Z,16.40
2018-09-18T05:36:46.664Z,16.50
2018-09-18T05:39:15.186Z,16.50
2018-09-18T05:41:43.596Z,16.50
2018-09-18T05:44:11.951Z,16.50
2018-09-18T05:46:42.378Z,16.50
2018-09-18T05:49:10.798Z,16.60
2018-09-18T05:51:39.167Z,16.80
2018-09-18T05:54:07.580Z,17.00
2018-09-18T05:56:35.955Z,17.10
2018-09-18T05:59:04.448Z,17.20
2018-09-18T06:01:32.821Z,17.20
2018-09-18T06:04:01.254Z,17.20
2018-09-18T06:06:29.643Z,17.20
2018-09-18T06:08:57.998Z,17.40
2018-09-18T06:11:26.338Z,17.40
2018-09-18T06:13:54.726Z,17.40
2018-09-18T06:16:23.102Z,17.40
2018-09-18T06:18:51.478Z,17.30
2018-09-18T06:21:19.854Z,17.30
2018-09-18T06:23:48.248Z,17.40
2018-09-18T06:26:16.616Z,17.60
2018-09-18T06:28:45.056Z,17.70
2018-09-18T06:31:13.422Z,18.00
2018-09-18T06:33:41.792Z,18.00
2018-09-18T06:36:10.276Z,18.10
2018-09-18T06:38:38.665Z,18.30
2018-09-18T06:41:07.066Z,18.40
2018-09-18T06:43:35.417Z,18.40
2018-09-18T06:46:03.824Z,18.40
2018-09-18T06:48:32.191Z,18.20
2018-09-18T06:51:00.556Z,18.40
2018-09-18T06:53:28.943Z,18.30
2018-09-18T06:55:57.310Z,18.40
2018-09-18T06:58:25.814Z,18.30
2018-09-18T07:00:54.179Z,18.30
2018-09-18T07:03:22.731Z,18.40
2018-09-18T07:05:51.099Z,18.40
2018-09-18T07:08:19.483Z,18.30
2018-09-18T07:10:47.863Z,18.60
2018-09-18T07:13:16.254Z,18.70
2018-09-18T07:15:44.646Z,18.90
2018-09-18T07:18:13.031Z,19.00
2018-09-18T07:20:41.382Z,18.90
2018-09-18T07:23:09.778Z,18.80
2018-09-18T07:25:38.223Z,18.90
2018-09-18T07:28:06.693Z,19.20
2018-09-18T07:30:35.101Z,19.40
2018-09-18T07:33:03.471Z,19.60
2018-09-18T07:35:31.934Z,19.70
2018-09-18T07:38:00.310Z,19.90
2018-09-18T07:40:28.717Z,20.00
2018-09-18T07:42:57.102Z,20.10
2018-09-18T07:45:25.483Z,20.20
2018-09-18T07:47:53.862Z,20.40
2018-09-18T07:50:22.206Z,20.50
2018-09-18T07:52:50.583Z,20.60
2018-09-18T07:55:18.918Z,20.70
2018-09-18T07:57:47.346Z,20.90
2018-09-18T08:00:15.775Z,21.00
2018-09-18T08:02:44.124Z,21.00
2018-09-18T08:05:12.476Z,21.00
2018-09-18T08:07:40.892Z,20.90
2018-09-18T08:10:09.322Z,21.00
2018-09-18T08:12:37.699Z,21.20
2018-09-18T08:15:06.232Z,21.30
2018-09-18T08:17:34.892Z,21.30
2018-09-18T08:20:03.264Z,21.40
2018-09-18T08:22:31.612Z,21.50
2018-09-18T08:25:00.052Z,21.60
2018-09-18T08:27:28.420Z,21.80
2018-09-18T08:29:56.891Z,21.90
2018-09-18T08:32:25.280Z,22.00
2018-09-18T08:34:53.645Z,22.10
2018-09-18T08:37:22.067Z,22.10
2018-09-18T08:39:50.544Z,22.30
2018-09-18T08:42:18.921Z,22.50
2018-09-18T08:44:47.313Z,22.60
2018-09-18T08:47:15.668Z,22.70
2018-09-18T08:49:44.066Z,22.70
2018-09-18T08:52:12.443Z,22.80
2018-09-18T08:54:40.831Z,22.80
2018-09-18T08:57:09.257Z,22.80
2018-09-18T08:59:37.654Z,22.90
2018-09-18T09:02:06.034Z,23.00
2018-09-18T09:04:34.571Z,23.00
2018-09-18T09:07:03.007Z,23.00
2018-09-18T09:09:31.438Z,23.30
2018-09-18T09:11:59.885Z,23.40
2018-09-18T09:14:28.412Z,23.30
2018-09-18T09:16:56.714Z,23.40
2018-09-18T09:19:25.204Z,23.50
2018-09-18T09:21:53.630Z,23.60
2018-09-18T09:24:21.997Z,23.70
2018-09-18T09:26:50.478Z,23.90
2018-09-18T09:29:18.794Z,24.00
2018-09-18T09:31:47.203Z,24.10
2018-09-18T09:34:15.598Z,24.30
2018-09-18T09:36:44.000Z,24.30
2018-09-18T09:39:12.910Z,24.50
2018-09-18T09:41:41.298Z,24.60
2018-09-18T09:44:09.699Z,24.70
2018-09-18T09:46:38.086Z,24.80
2018-09-18T09:49:06.499Z,24.90
2018-09-18T09:51:34.965Z,24.90
2018-09-18T09:54:03.290Z,25.00
2018-09-18T09:56:31.640Z,25.10
2018-09-18T09:58:59.998Z,25.20
2018-09-18T10:01:33.714Z,25.30
2018-09-18T10:04:02.077Z,25.40
2018-09-18T10:06:30.833Z,25.50
2018-09-18T10:08:59.294Z,25.50
2018-09-18T10:11:27.662Z,25.50
2018-09-18T10:13:56.002Z,25.70
2018-09-18T10:16:24.378Z,25.80
2018-09-18T10:18:52.736Z,25.80
2018-09-18T10:21:21.108Z,25.90
2018-09-18T10:23:49.580Z,26.00
2018-09-18T10:26:18.114Z,26.00
2018-09-18T10:28:46.310Z,26.00
2018-09-18T10:31:14.939Z,26.10
2018-09-18T10:33:43.275Z,26.10
2018-09-18T10:36:11.659Z,26.10
2018-09-18T10:38:40.071Z,26.20
2018-09-18T10:41:08.505Z,26.40
2018-09-18T10:43:36.867Z,26.40
2018-09-18T10:46:05.243Z,26.40
2018-09-18T10:48:38.178Z,26.40
2018-09-18T10:51:06.584Z,26.60
2018-09-18T10:53:34.979Z,26.50
2018-09-18T10:56:03.390Z,26.60
2018-09-18T10:58:31.804Z,26.60
2018-09-18T11:01:00.205Z,26.60
2018-09-18T11:03:28.649Z,26.50
2018-09-18T11:05:57.039Z,26.50
2018-09-18T11:08:25.532Z,26.50
2018-09-18T11:10:53.894Z,26.50
2018-09-18T11:13:22.326Z,26.60
2018-09-18T11:15:50.744Z,26.70
2018-09-18T11:18:19.222Z,26.80
2018-09-18T11:20:47.619Z,26.80
2018-09-18T11:23:16.032Z,26.80
2018-09-18T11:25:44.572Z,26.90
2018-09-18T11:28:13.013Z,26.90
2018-09-18T11:30:41.469Z,26.90
2018-09-18T11:33:09.947Z,26.90
2018-09-18T11:35:38.453Z,26.90
2018-09-18T11:38:06.828Z,26.90
2018-09-18T11:40:35.279Z,26.90
2018-09-18T11:43:03.783Z,26.90
2018-09-18T11:45:32.195Z,26.90
2018-09-18T11:48:00.583Z,27.00
2018-09-18T11:50:29.539Z,27.00
2018-09-18T11:52:58.494Z,26.90
2018-09-18T11:55:26.834Z,27.00
2018-09-18T11:57:55.321Z,26.90
2018-09-18T12:00:23.783Z,27.00
2018-09-18T12:02:52.296Z,27.00
2018-09-18T12:05:20.717Z,27.00
2018-09-18T12:07:49.153Z,27.20
2018-09-18T12:10:17.506Z,27.10
2018-09-18T12:12:45.896Z,27.10
2018-09-18T12:15:14.924Z,27.20
2018-09-18T12:17:43.298Z,27.20
2018-09-18T12:20:11.691Z,27.10
2018-09-18T12:22:40.134Z,27.00
2018-09-18T12:25:08.518Z,26.90
2018-09-18T12:27:36.927Z,26.90
2018-09-18T12:30:05.333Z,26.90
2018-09-18T12:32:33.867Z,26.90
2018-09-18T12:35:02.236Z,26.90
2018-09-18T12:37:30.650Z,26.90
2018-09-18T12:39:59.066Z,27.00
2018-09-18T12:42:27.577Z,27.10
2018-09-18T12:44:55.909Z,27.00
2018-09-18T12:47:24.303Z,27.10
2018-09-18T12:49:53.026Z,27.00
2018-09-18T12:52:21.144Z,27.00
2018-09-18T12:54:49.528Z,26.90
2018-09-18T12:57:18.153Z,26.90
2018-09-18T12:59:46.353Z,27.10
2018-09-18T13:02:14.692Z,27.10
2018-09-18T13:04:43.151Z,27.00
2018-09-18T13:07:11.574Z,27.00
2018-09-18T13:09:39.929Z,26.90
2018-09-18T13:12:08.373Z,27.00
2018-09-18T13:14:36.725Z,27.00
2018-09-18T13:17:05.251Z,27.00
2018-09-18T13:19:33.622Z,27.00
2018-09-18T13:22:02.027Z,27.00
2018-09-18T13:24:30.391Z,27.10
2018-09-18T13:26:58.752Z,27.00
2018-09-18T13:29:27.130Z,27.00
2018-09-18T13:31:55.488Z,27.00
2018-09-18T13:34:23.954Z,26.90
2018-09-18T13:36:52.311Z,26.90
2018-09-18T13:39:20.703Z,27.00
2018-09-18T13:41:49.070Z,26.90
2018-09-18T13:44:17.443Z,26.90
2018-09-18T13:46:45.976Z,26.80
2018-09-18T13:49:14.459Z,26.80
2018-09-18T13:51:42.876Z,26.90
2018-09-18T13:54:11.348Z,26.80
2018-09-18T13:56:39.764Z,26.80
2018-09-18T13:59:08.129Z,27.10
2018-09-18T14:01:36.731Z,27.20
2018-09-18T14:04:04.923Z,27.20
2018-09-18T14:06:33.303Z,27.10
2018-09-18T14:09:01.892Z,27.00
2018-09-18T14:11:30.159Z,27.20
2018-09-18T14:13:58.516Z,27.20
2018-09-18T14:16:26.932Z,27.20
2018-09-18T14:18:55.278Z,27.20
2018-09-18T14:21:23.804Z,27.20
2018-09-18T14:23:52.177Z,27.20
2018-09-18T14:26:20.554Z,27.10
2018-09-18T14:28:48.951Z,27.10
2018-09-18T14:31:17.307Z,27.10
2018-09-18T14:33:45.674Z,27.20
2018-09-18T14:36:14.058Z,27.20
2018-09-18T14:38:42.398Z,27.20
2018-09-18T14:41:10.787Z,27.30
2018-09-18T14:43:39.180Z,27.40
2018-09-18T14:46:07.551Z,27.50
2018-09-18T14:48:35.947Z,27.50
2018-09-18T14:51:04.361Z,27.50
2018-09-18T14:53:32.686Z,27.50
2018-09-18T14:56:01.071Z,27.40
2018-09-18T14:58:29.489Z,27.40
2018-09-18T15:00:57.882Z,27.50
2018-09-18T15:03:26.297Z,27.50
2018-09-18T15:05:54.682Z,27.60
2018-09-18T15:08:23.034Z,27.50
2018-09-18T15:10:51.422Z,27.40
2018-09-18T15:13:19.796Z,27.60
2018-09-18T15:15:48.145Z,27.70
2018-09-18T15:18:16.521Z,27.70
2018-09-18T15:20:44.889Z,27.70
2018-09-18T15:23:13.277Z,27.70
2018-09-18T15:25:41.618Z,27.80
2018-09-18T15:28:10.071Z,27.80
2018-09-18T15:30:38.447Z,27.80
2018-09-18T15:33:06.810Z,27.80
2018-09-18T15:35:35.191Z,27.70
2018-09-18T15:38:03.591Z,27.70
2018-09-18T15:40:32.093Z,27.70
2018-09-18T15:43:00.484Z,27.90
2018-09-18T15:45:28.923Z,27.80
2018-09-18T15:47:57.276Z,27.70
2018-09-18T15:50:25.679Z,27.60
2018-09-18T15:52:54.157Z,27.60
2018-09-18T15:55:22.686Z,27.60
2018-09-18T15:57:51.040Z,27.50
2018-09-18T16:00:19.407Z,27.50
2018-09-18T16:02:47.886Z,27.80
2018-09-18T16:05:16.320Z,27.70
2018-09-18T16:07:45.186Z,27.70
2018-09-18T16:10:13.563Z,27.70
2018-09-18T16:12:41.972Z,27.60
2018-09-18T16:15:10.397Z,27.60
2018-09-18T16:17:38.796Z,27.50
2018-09-18T16:20:07.195Z,27.50
2018-09-18T16:22:35.661Z,27.50
2018-09-18T16:25:04.043Z,27.50
2018-09-18T16:27:32.422Z,27.40
2018-09-18T16:30:00.822Z,27.40
2018-09-18T16:32:29.266Z,27.40
2018-09-18T16:34:57.739Z,27.40
2018-09-18T16:37:26.228Z,27.30
2018-09-18T16:39:54.642Z,27.30
2018-09-18T16:42:23.034Z,27.30
2018-09-18T16:44:51.448Z,27.20
2018-09-18T16:47:20.021Z,27.20
2018-09-18T16:49:48.437Z,27.20
2018-09-18T16:52:16.869Z,27.30
2018-09-18T16:54:45.291Z,27.40
2018-09-18T16:57:13.635Z,27.40
2018-09-18T16:59:42.009Z,27.40
2018-09-18T17:02:10.393Z,27.40
2018-09-18T17:04:38.968Z,27.30
2018-09-18T17:07:07.307Z,27.30
2018-09-18T17:09:35.690Z,27.30
2018-09-18T17:12:05.425Z,27.30
2018-09-18T17:14:34.058Z,27.20
2018-09-18T17:17:02.416Z,27.20
2018-09-18T17:19:30.844Z,27.10
2018-09-18T17:21:59.183Z,27.10
2018-09-18T17:24:27.658Z,27.00
2018-09-18T17:26:56.697Z,27.00
2018-09-18T17:29:25.211Z,27.00
2018-09-18T17:31:53.572Z,26.90
2018-09-18T17:34:22.233Z,26.90
2018-09-18T17:36:51.195Z,26.80
2018-09-18T17:39:19.740Z,26.80
2018-09-18T17:41:48.170Z,26.80
2018-09-18T17:44:16.568Z,26.70
2018-09-18T17:46:45.599Z,26.70
2018-09-18T17:49:13.981Z,26.70
2018-09-18T17:51:42.348Z,26.70
2018-09-18T17:54:10.816Z,26.70
2018-09-18T17:56:40.123Z,26.60
2018-09-18T17:59:08.933Z,26.60
2018-09-18T18:01:37.613Z,26.50
2018-09-18T18:04:06.163Z,26.50
2018-09-18T18:06:38.457Z,26.50
2018-09-18T18:09:08.511Z,26.50
2018-09-18T18:11:37.089Z,26.40
2018-09-18T18:14:05.732Z,26.30
2018-09-18T18:16:34.282Z,26.30
2018-09-18T18:19:02.736Z,26.30
2018-09-18T18:21:31.121Z,26.30
2018-09-18T18:23:59.524Z,26.30
2018-09-18T18:26:28.020Z,26.20
2018-09-18T18:28:56.358Z,26.20
2018-09-18T18:31:24.792Z,26.20
2018-09-18T18:33:53.123Z,26.10
2018-09-18T18:36:21.646Z,26.10
2018-09-18T18:38:50.018Z,26.10
2018-09-18T18:41:18.390Z,26.00
2018-09-18T18:43:47.122Z,26.00
2018-09-18T18:46:15.528Z,26.00
2018-09-18T18:48:43.960Z,26.00
2018-09-18T18:51:12.368Z,26.00
2018-09-18T18:53:40.747Z,26.00
2018-09-18T18:56:09.228Z,25.90
2018-09-18T18:58:37.615Z,25.90
2018-09-18T19:01:06.110Z,25.90
2018-09-18T19:03:34.532Z,25.80
2018-09-18T19:06:02.919Z,25.80
2018-09-18T19:08:31.323Z,25.70
2018-09-18T19:10:59.802Z,25.70
2018-09-18T19:13:29.831Z,25.70
2018-09-18T19:15:58.501Z,25.70
2018-09-18T19:18:27.019Z,25.80
2018-09-18T19:20:55.459Z,25.70
2018-09-18T19:23:24.255Z,25.70
2018-09-18T19:25:52.816Z,25.70
2018-09-18T19:28:21.284Z,25.70
2018-09-18T19:30:49.906Z,25.60
2018-09-18T19:33:18.647Z,25.50
2018-09-18T19:35:46.939Z,25.60
2018-09-18T19:38:15.623Z,25.50
2018-09-18T19:40:44.026Z,25.50
2018-09-18T19:43:12.497Z,25.50
2018-09-18T19:45:41.212Z,25.50
2018-09-18T19:48:09.929Z,25.50
2018-09-18T19:50:38.691Z,25.50
2018-09-18T19:53:07.326Z,25.40
2018-09-18T19:55:35.969Z,25.40
2018-09-18T19:58:04.531Z,25.30
2018-09-18T20:00:33.837Z,25.30
2018-09-18T20:03:02.272Z,25.30
2018-09-18T20:05:30.730Z,25.20
2018-09-18T20:07:59.812Z,25.20
2018-09-18T20:10:28.259Z,25.20
2018-09-18T20:12:56.712Z,25.30
2018-09-18T20:15:25.163Z,25.20
2018-09-18T20:17:53.829Z,25.10
2018-09-18T20:20:22.635Z,25.10
2018-09-18T20:22:51.150Z,25.10
2018-09-18T20:25:19.661Z,25.20
2018-09-18T20:27:48.137Z,25.20
2018-09-18T20:30:16.528Z,25.10
2018-09-18T20:32:44.963Z,25.10
2018-09-18T20:35:13.505Z,25.00
2018-09-18T20:37:41.895Z,25.00
2018-09-18T20:40:10.270Z,24.90
2018-09-18T20:42:38.854Z,24.90
2018-09-18T20:45:07.327Z,24.70
2018-09-18T20:47:35.711Z,24.80
2018-09-18T20:50:04.255Z,24.80
2018-09-18T20:52:32.651Z,24.80
2018-09-18T20:55:01.031Z,24.60
2018-09-18T20:57:29.492Z,24.50
2018-09-18T20:59:57.838Z,24.60
2018-09-18T21:02:26.235Z,24.60
2018-09-18T21:04:54.648Z,24.60
2018-09-18T21:07:23.019Z,24.60
2018-09-18T21:10:14.434Z,24.60
2018-09-18T21:12:42.903Z,24.60
2018-09-18T21:15:11.292Z,24.60
2018-09-18T21:17:40.362Z,24.50
2018-09-18T21:20:09.451Z,24.30
2018-09-18T21:22:37.883Z,24.30
2018-09-18T21:25:16.008Z,24.30
2018-09-18T21:27:45.764Z,24.30
2018-09-18T21:30:15.460Z,24.20
2018-09-18T21:32:43.865Z,24.20
2018-09-18T21:35:12.227Z,24.30
2018-09-18T21:37:41.026Z,24.30
2018-09-18T21:40:09.541Z,24.20
2018-09-18T21:42:37.968Z,24.00
2018-09-18T21:45:06.328Z,23.90
2018-09-18T21:47:35.351Z,23.90
2018-09-18T21:50:03.820Z,23.90
2018-09-18T21:52:32.245Z,23.90
2018-09-18T21:55:00.782Z,23.80
2018-09-18T21:57:29.415Z,23.90
2018-09-18T21:59:57.818Z,24.00
2018-09-18T22:02:26.191Z,24.00
2018-09-18T22:04:54.683Z,24.00
2018-09-18T22:07:23.051Z,23.90
2018-09-18T22:09:51.436Z,23.90
2018-09-18T22:12:19.801Z,23.90
2018-09-18T22:14:48.188Z,23.90
2018-09-18T22:17:16.604Z,23.80
2018-09-18T22:19:45.023Z,23.90
2018-09-18T22:22:13.483Z,24.00
2018-09-18T22:24:41.791Z,24.10
2018-09-18T22:27:10.166Z,24.00
2018-09-18T22:29:38.524Z,23.90
2018-09-18T22:32:07.050Z,23.90
2018-09-18T22:34:35.423Z,24.00
2018-09-18T22:37:03.858Z,23.80
2018-09-18T22:39:32.229Z,23.70
2018-09-18T22:42:00.633Z,23.80
2018-09-18T22:44:29.037Z,23.70
2018-09-18T22:46:58.198Z,23.60
2018-09-18T22:49:26.608Z,23.50
2018-09-18T22:51:54.973Z,23.50
2018-09-18T22:54:23.363Z,23.50
2018-09-18T22:56:51.766Z,23.60
2018-09-18T22:59:20.287Z,23.70
2018-09-18T23:01:48.675Z,23.60
2018-09-18T23:04:17.121Z,23.70
2018-09-18T23:06:45.514Z,23.80
2018-09-18T23:09:13.931Z,23.70
2018-09-18T23:11:42.410Z,23.60
2018-09-18T23:14:10.844Z,23.60
2018-09-18T23:16:39.253Z,23.50
2018-09-18T23:19:07.643Z,23.40
2018-09-18T23:21:36.067Z,23.50
2018-09-18T23:24:04.479Z,23.50
2018-09-18T23:26:32.894Z,23.40
2018-09-18T23:29:01.276Z,23.30
2018-09-18T23:31:29.674Z,23.20
2018-09-18T23:33:58.075Z,23.10
2018-09-18T23:36:26.515Z,23.10
2018-09-18T23:38:54.934Z,23.10
2018-09-18T23:41:23.355Z,23.10
2018-09-18T23:43:51.859Z,23.10
2018-09-18T23:46:20.418Z,23.00
2018-09-18T23:48:48.831Z,23.10
2018-09-18T23:51:17.212Z,23.20
2018-09-18T23:53:45.666Z,23.20
2018-09-18T23:56:14.114Z,23.20
2018-09-18T23:58:42.523Z,23.00
